Time;durP1;ratioP1;P1;durP2;ratioP2;P2;SDS_P1;SDS_P2;PMS_P1;PMS_P2;Temp;Humidity;BMP_temperature;BMP_pressure;BME280_temperature;BME280_humidity;BME280_pressure;Samples;Min_cycle;Max_cycle;Signal;HPM_P1;HPM_P2
2022/01/12 00:01:38;;;;;;;9.40;5.40;;;-6.50;99.90;;;;;;5056698;28;20028;-91
2022/01/12 00:04:04;;;;;;;10.32;5.40;;;-6.50;99.90;;;;;;5055896;28;20372;-91
2022/01/12 00:06:31;;;;;;;11.98;5.75;;;-6.50;99.90;;;;;;5055867;28;20032;-91
2022/01/12 00:08:59;;;;;;;13.77;5.88;;;-6.60;99.90;;;;;;5056715;28;20375;-91
2022/01/12 00:11:25;;;;;;;8.90;5.07;;;-6.60;99.90;;;;;;5056095;28;20025;-91
2022/01/12 00:13:52;;;;;;;12.30;5.88;;;-6.50;99.90;;;;;;5056607;28;20163;-91
2022/01/12 00:16:18;;;;;;;11.50;5.97;;;-6.50;99.90;;;;;;5056791;28;20044;-91
2022/01/12 00:18:45;;;;;;;15.05;5.88;;;-6.60;99.90;;;;;;5055068;28;20036;-91
2022/01/12 00:21:12;;;;;;;13.05;6.95;;;-6.60;99.90;;;;;;5056852;28;20032;-91
2022/01/12 00:23:39;;;;;;;16.48;6.55;;;-6.60;99.90;;;;;;5055770;28;20032;-91
2022/01/12 00:26:09;;;;;;;12.60;6.80;;;-6.70;99.90;;;;;;5055774;28;20063;-91
2022/01/12 00:34:06;;;;;;;13.38;6.22;;;-6.60;99.90;;;;;;5056821;28;20078;-91
2022/01/12 00:36:44;;;;;;;14.15;7.38;;;-6.70;99.90;;;;;;5055369;28;20033;-91
2022/01/12 00:39:10;;;;;;;13.05;6.18;;;-6.70;99.90;;;;;;5055615;28;20096;-92
2022/01/12 00:41:37;;;;;;;11.65;5.68;;;-6.60;99.90;;;;;;5055410;28;20039;-91
2022/01/12 00:44:07;;;;;;;11.25;5.68;;;-6.60;99.90;;;;;;5055708;28;20029;-91
2022/01/12 00:46:33;;;;;;;10.00;5.82;;;-6.60;99.90;;;;;;5054539;28;20483;-91
2022/01/12 00:48:59;;;;;;;11.32;5.38;;;-6.60;99.90;;;;;;5055309;28;20037;-91
2022/01/12 00:51:27;;;;;;;11.48;5.97;;;-6.70;99.90;;;;;;5055186;28;20047;-91
2022/01/12 00:53:54;;;;;;;8.48;5.50;;;-6.60;99.90;;;;;;5055043;28;20463;-91
2022/01/12 00:56:21;;;;;;;8.95;5.15;;;-6.00;99.90;;;;;;5055374;28;20485;-91
2022/01/12 00:58:47;;;;;;;10.30;6.07;;;-6.70;99.90;;;;;;5055268;28;20025;-91
2022/01/12 01:01:13;;;;;;;12.10;5.68;;;-6.70;99.90;;;;;;5054781;28;20437;-91
2022/01/12 01:03:43;;;;;;;10.52;5.70;;;-6.80;99.90;;;;;;5054950;28;20037;-92
2022/01/12 01:06:10;;;;;;;8.80;5.30;;;-6.80;99.90;;;;;;5055258;28;20493;-91
2022/01/12 01:08:36;;;;;;;11.90;6.00;;;-6.90;99.90;;;;;;5055559;28;20463;-91
2022/01/12 01:11:02;;;;;;;12.55;6.32;;;-7.00;99.90;;;;;;5054797;28;20136;-91
2022/01/12 01:13:38;;;;;;;11.10;5.85;;;-7.00;99.90;;;;;;5054518;28;20036;-91
2022/01/12 01:26:48;;;;;;;10.40;6.20;;;-7.00;99.90;;;;;;5036059;28;20482;-91
2022/01/12 01:29:14;;;;;;;9.57;6.00;;;-7.10;99.90;;;;;;5042316;28;20021;-91
2022/01/12 01:31:41;;;;;;;8.98;4.80;;;-7.10;99.90;;;;;;5054799;28;20032;-91
2022/01/12 01:34:11;;;;;;;12.45;5.75;;;-7.10;99.90;;;;;;5054652;28;20433;-91
2022/01/12 01:36:44;;;;;;;13.45;5.90;;;-7.10;99.90;;;;;;5054625;28;20036;-89
2022/01/12 01:39:13;;;;;;;10.13;5.47;;;-7.00;99.90;;;;;;5054267;28;20102;-91
2022/01/12 01:41:41;;;;;;;9.82;5.47;;;-7.10;99.90;;;;;;5054046;28;20031;-91
2022/01/12 01:54:53;;;;;;;12.45;6.18;;;-7.40;99.90;;;;;;5055788;28;20379;-91
2022/01/12 01:57:19;;;;;;;12.43;6.13;;;-7.30;99.90;;;;;;5054771;28;20029;-91
2022/01/12 01:59:45;;;;;;;13.75;6.25;;;-7.20;99.90;;;;;;5053917;28;20025;-91
2022/01/12 02:02:12;;;;;;;13.48;6.60;;;-7.20;99.90;;;;;;5054342;28;20425;-91
2022/01/12 02:04:38;;;;;;;11.13;6.00;;;-7.30;99.90;;;;;;5053686;28;20029;-91
2022/01/12 02:07:05;;;;;;;9.70;5.70;;;-7.30;99.90;;;;;;5054048;28;20116;-91
2022/01/12 02:09:31;;;;;;;12.10;6.40;;;-7.30;99.90;;;;;;5053801;28;20020;-91
2022/01/12 02:11:57;;;;;;;8.82;4.95;;;-7.30;99.90;;;;;;5053585;28;20028;-91
2022/01/12 02:14:23;;;;;;;12.00;5.78;;;-7.30;99.90;;;;;;5053542;28;20028;-91
2022/01/12 02:16:57;;;;;;;11.20;5.85;;;-7.30;99.90;;;;;;5053760;28;20104;-91
2022/01/12 02:20:14;;;;;;;11.90;6.40;;;-7.30;99.90;;;;;;5053540;28;20039;-91
2022/01/12 02:36:20;;;;;;;10.52;5.93;;;-7.60;99.90;;;;;;5055059;28;20090;-91
2022/01/12 02:41:32;;;;;;;10.32;6.13;;;-7.80;99.90;;;;;;5054721;28;20166;-91
2022/01/12 02:54:49;;;;;;;15.77;6.00;;;-7.80;99.90;;;;;;5054743;28;20029;-92
2022/01/12 02:57:15;;;;;;;14.23;6.28;;;-7.70;99.90;;;;;;5053173;28;20386;-92
2022/01/12 03:00:01;;;;;;;9.05;5.80;;;-7.90;99.90;;;;;;5052631;28;20024;-91
2022/01/12 03:02:35;;;;;;;10.85;5.40;;;-7.80;99.90;;;;;;5056071;28;20451;-92
2022/01/12 03:07:45;;;;;;;11.90;5.95;;;-7.90;99.90;;;;;;5054346;28;20100;-91
2022/01/12 03:10:12;;;;;;;10.77;5.68;;;-8.20;99.90;;;;;;5052546;28;20033;-91
2022/01/12 03:12:40;;;;;;;11.30;5.82;;;-8.10;99.90;;;;;;5053057;28;20068;-91
2022/01/12 03:15:07;;;;;;;11.07;5.93;;;-8.20;99.90;;;;;;5052604;28;20021;-91
2022/01/12 03:17:34;;;;;;;11.00;5.25;;;-8.20;99.90;;;;;;5052755;28;20035;-91
2022/01/12 03:20:00;;;;;;;9.85;5.57;;;-8.20;99.90;;;;;;5052785;28;20075;-91
2022/01/12 03:22:26;;;;;;;12.55;5.35;;;-8.20;99.90;;;;;;5052963;28;20025;-91
2022/01/12 03:24:51;;;;;;;11.13;5.65;;;-8.20;99.90;;;;;;5058290;28;20140;-91
2022/01/12 03:27:17;;;;;;;10.77;5.90;;;;;;;;;;5072817;28;20035;-92
2022/01/12 03:29:49;;;;;;;10.55;5.53;;;-8.20;99.90;;;;;;5073614;28;20362;-92
2022/01/12 03:32:18;;;;;;;8.70;4.63;;;-8.20;99.90;;;;;;5070681;28;20044;-91
2022/01/12 03:34:53;;;;;;;10.18;5.38;;;-8.20;99.90;;;;;;5057852;28;20025;-91
2022/01/12 03:39:53;;;;;;;14.65;6.60;;;-8.10;99.90;;;;;;5053831;28;20387;-91
2022/01/12 03:42:19;;;;;;;15.02;6.47;;;-8.20;99.90;;;;;;5052981;28;20032;-92
2022/01/12 03:44:45;;;;;;;16.00;6.38;;;-8.10;99.90;;;;;;5052278;28;20032;-92
2022/01/12 03:47:11;;;;;;;17.17;7.13;;;-8.20;99.90;;;;;;5034950;28;20046;-91
2022/01/12 03:49:36;;;;;;;12.13;5.70;;;-8.20;99.90;;;;;;5048150;28;20035;-92
2022/01/12 03:52:03;;;;;;;12.65;5.38;;;-8.10;99.90;;;;;;5052754;28;20033;-91
2022/01/12 03:54:28;;;;;;;11.57;6.57;;;-8.10;99.90;;;;;;5055572;28;20032;-91
2022/01/12 03:56:54;;;;;;;14.30;5.68;;;-8.10;99.90;;;;;;5056374;28;20021;-92
2022/01/12 03:59:20;;;;;;;12.40;5.78;;;-8.00;99.90;;;;;;5056234;28;20025;-91
2022/01/12 04:01:46;;;;;;;13.55;5.30;;;-7.90;99.90;;;;;;5056123;28;20075;-92
2022/01/12 04:04:19;;;;;;;12.43;5.63;;;-7.90;99.90;;;;;;5044458;28;20029;-92
2022/01/12 04:09:29;;;;;;;13.80;5.30;;;-8.10;99.90;;;;;;5037807;28;20113;-91
2022/01/12 04:11:55;;;;;;;12.30;5.28;;;-8.20;99.90;;;;;;5048201;28;20056;-91
2022/01/12 04:14:21;;;;;;;8.32;4.63;;;-8.30;99.90;;;;;;5056353;28;20021;-93
2022/01/12 04:16:46;;;;;;;12.57;5.38;;;-8.40;99.90;;;;;;5062307;28;20066;-91
2022/01/12 04:19:12;;;;;;;8.13;5.07;;;-8.40;99.90;;;;;;5075708;28;20063;-91
2022/01/12 04:21:45;;;;;;;9.13;5.25;;;-8.50;99.90;;;;;;5075857;28;20037;-92
2022/01/12 04:24:10;;;;;;;9.60;5.22;;;-8.60;99.90;;;;;;5076157;28;20367;-92
2022/01/12 04:26:36;;;;;;;8.60;4.60;;;-8.60;99.90;;;;;;5075760;28;20047;-91
2022/01/12 04:29:03;;;;;;;12.50;5.10;;;-8.60;99.90;;;;;;5068441;28;20043;-92
2022/01/12 04:31:29;;;;;;;22.13;5.80;;;-8.80;99.90;;;;;;5055882;28;20025;-92
2022/01/12 04:33:54;;;;;;;10.10;5.28;;;-8.80;99.90;;;;;;5055656;28;20021;-92
2022/01/12 04:36:20;;;;;;;12.30;5.70;;;-8.80;99.90;;;;;;5055458;28;20033;-91
2022/01/12 04:38:46;;;;;;;14.50;7.20;;;-7.00;99.90;;;;;;5055034;28;20051;-95
2022/01/12 04:41:13;;;;;;;11.98;5.80;;;-8.80;99.90;;;;;;5055027;28;20033;-92
2022/01/12 04:43:42;;;;;;;10.73;5.68;;;-9.00;99.90;;;;;;5055045;28;20029;-92
2022/01/12 04:46:21;;;;;;;13.50;5.75;;;-9.00;99.90;;;;;;5056166;28;20113;-92
2022/01/12 04:51:33;;;;;;;9.90;5.60;;;-9.20;99.90;;;;;;5076617;28;20069;-90
2022/01/12 04:53:59;;;;;;;10.88;5.65;;;-9.40;99.90;;;;;;5070242;28;20033;-90
2022/01/12 04:56:28;;;;;;;9.60;5.80;;;;;;;;;;5047006;28;20025;-91
2022/01/12 04:58:54;;;;;;;11.38;5.88;;;-9.00;99.90;;;;;;5050794;28;20021;-90
2022/01/12 05:01:25;;;;;;;13.48;5.90;;;-9.70;99.90;;;;;;5055186;28;20082;-90
2022/01/12 05:14:24;;;;;;;10.20;5.35;;;-9.70;99.80;;;;;;5055890;28;20028;-90
2022/01/12 05:16:51;;;;;;;11.07;5.35;;;-12.00;99.60;;;;;;5054449;28;20029;-90
2022/01/12 05:19:17;;;;;;;8.98;5.45;;;;;;;;;;5054558;28;20029;-90
2022/01/12 05:21:42;;;;;;;11.77;5.25;;;-9.70;99.90;;;;;;5053660;28;20025;-90
2022/01/12 05:24:10;;;;;;;12.32;4.90;;;-9.60;99.90;;;;;;5069404;28;20059;-90
2022/01/12 05:26:36;;;;;;;10.50;5.28;;;-9.70;99.90;;;;;;5054186;28;20021;-91
2022/01/12 05:29:02;;;;;;;14.23;5.57;;;-9.70;99.90;;;;;;5050354;28;20025;-91
2022/01/12 05:31:28;;;;;;;11.73;5.22;;;;;;;;;;5054203;28;20092;-90
2022/01/12 05:33:58;;;;;;;11.02;5.03;;;-9.80;99.90;;;;;;5063042;28;20013;-92
2022/01/12 15:43:48;;;;;;;24.45;10.30;;;-10.60;96.50;;;;;;5072227;27;2465270;-96
2022/01/12 15:46:15;;;;;;;24.65;10.00;;;-10.40;96.40;;;;;;5127968;28;20027;-96
2022/01/12 15:48:41;;;;;;;23.52;9.25;;;-10.50;96.60;;;;;;5125270;28;20028;-96
2022/01/12 15:51:07;;;;;;;16.75;8.05;;;-10.50;96.10;;;;;;5119490;28;20027;-96
2022/01/12 15:53:33;;;;;;;18.52;7.85;;;-10.40;96.10;;;;;;5115314;28;20023;-96
2022/01/12 15:55:59;;;;;;;18.55;7.80;;;-10.30;95.90;;;;;;5116321;28;20488;-96
2022/01/12 15:58:27;;;;;;;21.02;9.50;;;-12.20;95.40;;;;;;5138912;28;20019;-95
2022/01/12 16:00:52;;;;;;;23.27;8.45;;;-10.30;95.80;;;;;;5116351;28;20015;-96
2022/01/12 16:03:18;;;;;;;19.38;8.05;;;-10.30;96.10;;;;;;5116188;28;20027;-96
2022/01/12 16:05:44;;;;;;;17.13;9.57;;;-10.20;95.90;;;;;;5114549;28;20027;-96
2022/01/12 16:08:10;;;;;;;19.98;9.25;;;;;;;;;;5114459;28;20026;-96
2022/01/12 16:11:18;;;;;;;20.63;9.02;;;-10.10;96.00;;;;;;5115374;28;20015;-96
2022/01/12 16:13:45;;;;;;;17.08;7.38;;;;;;;;;;5140414;22;20044;-95
2022/01/12 16:16:11;;;;;;;20.17;9.45;;;;;;;;;;5113218;28;20118;-96
2022/01/12 16:18:37;;;;;;;23.85;9.65;;;;;;;;;;5119666;28;20077;-96
2022/01/12 16:21:04;;;;;;;25.92;10.60;;;;;;;;;;5104279;28;20053;-96
2022/01/12 16:23:34;;;;;;;24.35;9.95;;;;;;;;;;5122400;28;20101;-96
2022/01/12 16:26:03;;;;;;;23.83;11.10;;;;;;;;;;5118675;28;20020;-96
2022/01/12 16:28:30;;;;;;;18.63;9.38;;;;;;;;;;5115006;28;20482;-96
2022/01/12 16:30:59;;;;;;;21.80;10.02;;;;;;;;;;5121638;28;20024;-96
2022/01/12 16:33:31;;;;;;;18.33;8.27;;;-10.10;95.90;;;;;;5117007;28;20354;-96
2022/01/12 16:35:58;;;;;;;34.28;12.70;;;-10.20;95.80;;;;;;5112468;28;20023;-96
2022/01/12 16:39:02;;;;;;;15.45;7.75;;;-10.10;95.90;;;;;;5112305;28;20385;-96
2022/01/12 16:42:10;;;;;;;15.60;6.93;;;-10.20;96.40;;;;;;5176608;22;20064;-96
2022/01/12 16:52:33;;;;;;;13.68;6.90;;;;;;;;;;5049169;28;20056;-96
2022/01/12 16:54:59;;;;;;;17.25;8.70;;;-10.10;96.10;;;;;;5036718;28;20033;-96
2022/01/12 16:57:25;;;;;;;11.43;6.32;;;-10.10;95.60;;;;;;5022790;28;20056;-95
2022/01/12 16:59:55;;;;;;;14.27;7.40;;;-9.60;95.90;;;;;;5024399;28;20029;-96
2022/01/12 17:02:25;;;;;;;17.80;6.97;;;-10.40;96.10;;;;;;5026831;28;20029;-96
2022/01/12 17:10:28;;;;;;;18.20;8.07;;;-10.50;97.00;;;;;;5434803;22;20050;-95
2022/01/12 17:18:40;;;;;;;23.52;9.15;;;-10.50;96.90;;;;;;5190669;22;20063;-96
2022/01/12 17:21:13;;;;;;;20.45;7.90;;;-10.50;97.40;;;;;;5075394;28;20103;-96
2022/01/12 17:27:08;;;;;;;23.30;6.65;;;-10.60;96.60;;;;;;5192359;22;20080;-95
2022/01/12 17:29:35;;;;;;;18.90;8.27;;;-10.60;96.80;;;;;;5066181;28;20111;-96
2022/01/12 17:32:01;;;;;;;16.58;6.03;;;-10.60;97.30;;;;;;5061007;28;20036;-95
2022/01/12 17:34:28;;;;;;;19.05;8.35;;;;;;;;;;5058637;28;20031;-95
2022/01/12 17:36:59;;;;;;;15.98;6.60;;;-10.50;97.10;;;;;;5058582;28;20032;-94
2022/01/12 17:39:26;;;;;;;;;;;-10.50;97.40;;;;;;5058989;28;20462;-94
2022/01/12 17:41:54;;;;;;;12.90;6.00;;;-10.10;96.70;;;;;;5058939;28;19970;-93
2022/01/12 17:44:24;;;;;;;15.75;6.63;;;-10.60;96.20;;;;;;5058425;28;20055;-94
2022/01/12 17:46:50;;;;;;;13.02;5.90;;;-10.60;95.60;;;;;;5058229;28;20562;-94
2022/01/12 17:49:44;;;;;;;11.90;5.95;;;-10.70;95.40;;;;;;5059070;28;20056;-94
2022/01/12 17:52:10;;;;;;;15.50;5.97;;;-10.70;95.30;;;;;;5058407;28;20032;-96
2022/01/12 17:54:35;;;;;;;14.38;5.68;;;-10.70;95.60;;;;;;5059371;28;20379;-96
2022/01/12 17:57:01;;;;;;;13.55;6.38;;;-10.90;95.20;;;;;;5058286;28;20052;-96
2022/01/12 17:59:27;;;;;;;11.68;5.55;;;-10.70;95.50;;;;;;5058338;28;20025;-96
2022/01/12 18:01:52;;;;;;;10.43;5.53;;;-10.80;95.30;;;;;;5057885;28;20025;-95
2022/01/12 18:04:18;;;;;;;14.75;6.18;;;-10.70;95.20;;;;;;5058290;28;20020;-95
2022/01/12 18:06:44;;;;;;;11.93;6.32;;;-10.80;95.40;;;;;;5057228;28;20032;-95
2022/01/12 18:09:11;;;;;;;14.77;6.88;;;-10.70;95.30;;;;;;5057814;28;20030;-94
2022/01/12 18:11:37;;;;;;;24.23;8.18;;;-10.70;95.50;;;;;;5057648;28;20107;-95
2022/01/12 18:14:02;;;;;;;18.92;7.72;;;-10.60;95.30;;;;;;5058174;28;20082;-96
2022/01/12 18:16:28;;;;;;;24.48;7.78;;;-10.60;95.10;;;;;;5058055;28;20112;-95
2022/01/12 18:19:00;;;;;;;21.25;7.95;;;-10.60;95.30;;;;;;5057755;28;20031;-95
2022/01/12 18:21:27;;;;;;;19.38;8.57;;;-12.60;95.30;;;;;;5057867;28;20021;-96
2022/01/12 18:23:53;;;;;;;23.10;7.05;;;-10.40;96.20;;;;;;5057875;28;20078;-95
2022/01/12 18:26:20;;;;;;;14.63;7.68;;;-10.20;96.20;;;;;;5057246;28;20101;-96
2022/01/12 18:28:46;;;;;;;14.23;6.43;;;-10.20;95.80;;;;;;5058116;28;20024;-96
2022/01/12 18:31:12;;;;;;;17.17;6.88;;;-10.40;96.40;;;;;;5057324;28;20108;-95
2022/01/12 18:33:38;;;;;;;11.02;6.10;;;-10.20;95.80;;;;;;5057614;28;20052;-93
2022/01/12 18:36:05;;;;;;;12.90;6.03;;;-10.20;95.90;;;;;;5057202;28;20078;-94
2022/01/12 18:38:37;;;;;;;13.38;6.22;;;-9.40;95.90;;;;;;5057338;28;20127;-93
2022/01/12 18:41:04;;;;;;;11.70;6.15;;;-10.30;96.00;;;;;;5057531;28;20028;-94
2022/01/12 18:43:29;;;;;;;13.95;6.50;;;-10.40;96.20;;;;;;5057128;28;20029;-96
2022/01/12 18:45:55;;;;;;;18.70;6.78;;;-10.30;96.40;;;;;;5057249;28;20032;-95
2022/01/12 18:48:21;;;;;;;19.95;7.40;;;-10.30;96.60;;;;;;5057385;28;20025;-95
2022/01/12 18:50:47;;;;;;;14.18;6.82;;;-10.20;96.70;;;;;;5057305;28;20107;-95
2022/01/12 18:53:13;;;;;;;14.60;6.97;;;;;;;;;;5057213;28;20078;-96
2022/01/12 18:55:39;;;;;;;17.65;6.70;;;-9.50;97.00;;;;;;5057133;28;20032;-96
2022/01/12 18:58:05;;;;;;;20.15;6.95;;;-10.30;96.80;;;;;;5057686;28;20093;-96
2022/01/12 19:00:31;;;;;;;15.38;7.20;;;-8.40;97.50;;;;;;5057907;28;20442;-96
2022/01/12 19:02:57;;;;;;;16.65;6.80;;;-10.20;97.30;;;;;;5056796;28;20078;-95
2022/01/12 19:05:22;;;;;;;15.77;7.60;;;-10.10;97.70;;;;;;5056762;28;20032;-96
2022/01/12 19:07:48;;;;;;;16.63;6.82;;;-9.30;98.10;;;;;;5056831;28;20070;-95
2022/01/12 19:10:14;;;;;;;14.18;5.63;;;-9.90;97.50;;;;;;5056704;28;20085;-93
2022/01/12 19:12:42;;;;;;;15.82;6.72;;;;;;;;;;5040099;28;20032;-94
2022/01/12 19:15:09;;;;;;;17.08;7.57;;;-10.20;97.30;;;;;;5056519;28;20044;-93
2022/01/12 19:17:35;;;;;;;15.98;6.72;;;;;;;;;;5057336;28;20040;-95
2022/01/12 19:20:02;;;;;;;18.45;8.77;;;;;;;;;;5057016;28;20036;-96
2022/01/12 19:22:28;;;;;;;15.75;6.75;;;;;;;;;;5057220;28;20876;-96
2022/01/12 19:24:54;;;;;;;16.30;6.68;;;-11.10;99.10;;;;;;5056590;28;20024;-96
2022/01/12 19:27:20;;;;;;;19.85;7.53;;;-10.00;99.40;;;;;;5056436;28;20055;-96
2022/01/12 19:29:46;;;;;;;15.68;7.20;;;;;;;;;;5057467;28;20040;-96
2022/01/12 19:32:14;;;;;;;12.82;6.22;;;-10.20;99.50;;;;;;5040026;28;20034;-95
2022/01/12 19:34:40;;;;;;;14.85;6.35;;;;;;;;;;5056927;28;20470;-96
2022/01/12 19:37:06;;;;;;;17.48;7.25;;;-9.90;99.50;;;;;;5057534;28;20508;-96
2022/01/12 19:39:32;;;;;;;19.70;8.88;;;-10.00;98.70;;;;;;5056946;28;20032;-96
2022/01/12 19:41:58;;;;;;;16.02;6.30;;;-10.00;99.90;;;;;;5057184;28;20072;-95
2022/01/12 19:44:26;;;;;;;18.02;8.30;;;-9.80;99.90;;;;;;5056431;28;20021;-96
2022/01/12 19:46:51;;;;;;;14.30;6.45;;;-9.90;99.90;;;;;;5056408;28;20024;-96
2022/01/12 19:49:17;;;;;;;14.98;7.18;;;-9.20;99.90;;;;;;5056582;28;20359;-96
2022/01/12 19:51:59;;;;;;;15.80;7.07;;;-9.80;99.90;;;;;;5056388;28;20097;-96
2022/01/12 19:54:30;;;;;;;15.85;7.22;;;;;;;;;;5057508;28;20119;-96
2022/01/12 19:57:24;;;;;;;13.20;6.45;;;-12.00;99.90;;;;;;5057002;28;20533;-96
2022/01/12 19:59:56;;;;;;;15.50;7.00;;;-8.90;99.90;;;;;;5057101;28;20077;-95
2022/01/12 20:02:28;;;;;;;17.48;7.13;;;-9.40;99.90;;;;;;5056720;28;20093;-96
2022/01/12 20:04:55;;;;;;;15.43;5.85;;;-10.10;99.90;;;;;;5058687;28;20021;-96
2022/01/12 20:07:22;;;;;;;14.52;6.75;;;-10.20;99.90;;;;;;5056148;28;20032;-96
2022/01/12 20:09:48;;;;;;;21.42;6.72;;;-10.20;99.00;;;;;;5056328;28;20039;-96
2022/01/12 20:12:15;;;;;;;13.05;5.75;;;-10.50;98.60;;;;;;5057622;28;20032;-96
2022/01/12 20:14:43;;;;;;;17.63;6.38;;;-10.30;98.60;;;;;;5056610;28;20436;-96
2022/01/12 20:17:27;;;;;;;27.30;8.68;;;-10.60;98.20;;;;;;5056032;28;20032;-96
2022/01/12 20:23:11;;;;;;;16.67;7.15;;;-10.50;98.60;;;;;;5074218;28;20040;-96
2022/01/12 20:25:39;;;;;;;23.75;8.52;;;-10.70;97.30;;;;;;5057295;28;20029;-95
2022/01/12 20:28:07;;;;;;;22.50;8.00;;;-10.90;97.30;;;;;;5056403;28;20076;-96
2022/01/12 20:30:34;;;;;;;19.35;7.97;;;-10.70;97.90;;;;;;5060868;28;20079;-96
2022/01/12 20:33:00;;;;;;;17.52;7.18;;;-10.80;96.40;;;;;;5060499;28;20024;-96
2022/01/12 20:35:25;;;;;;;20.90;6.20;;;-10.70;96.60;;;;;;5062465;28;20025;-96
2022/01/12 20:37:51;;;;;;;15.32;5.28;;;-10.90;96.70;;;;;;5060813;28;20021;-96
2022/01/12 20:40:17;;;;;;;14.15;5.93;;;-10.90;96.50;;;;;;5060083;28;20116;-96
2022/01/12 20:42:43;;;;;;;18.30;6.47;;;-11.00;96.40;;;;;;5059829;28;20032;-95
2022/01/12 20:45:11;;;;;;;21.00;6.30;;;-11.00;96.30;;;;;;5059989;28;20060;-96
2022/01/12 20:47:37;;;;;;;14.52;5.55;;;-11.00;96.20;;;;;;5059890;28;20034;-96
2022/01/12 20:50:05;;;;;;;14.65;6.00;;;-11.00;96.30;;;;;;5059498;28;20021;-95
2022/01/12 20:52:31;;;;;;;16.77;5.95;;;-9.30;95.40;;;;;;5060216;28;20451;-96
2022/01/12 20:54:57;;;;;;;19.00;6.25;;;-10.90;95.20;;;;;;5059725;28;20036;-96
2022/01/12 20:57:23;;;;;;;14.88;5.75;;;-11.00;95.80;;;;;;5061380;28;20123;-96
2022/01/12 20:59:50;;;;;;;19.55;7.15;;;-11.00;95.60;;;;;;5060852;28;20112;-96
2022/01/12 21:02:20;;;;;;;21.40;7.15;;;-11.00;95.50;;;;;;5062292;28;20115;-96
2022/01/12 21:04:47;;;;;;;14.95;6.43;;;-10.70;95.20;;;;;;5064019;28;20024;-96
2022/01/12 21:07:13;;;;;;;19.20;7.97;;;-11.10;95.10;;;;;;5070094;28;20025;-96
2022/01/12 21:09:39;;;;;;;22.88;7.95;;;-11.20;95.40;;;;;;5065045;28;20343;-96
2022/01/12 21:12:06;;;;;;;20.38;7.90;;;-11.20;95.70;;;;;;5065824;28;20032;-96
2022/01/12 21:14:32;;;;;;;18.33;7.05;;;;;;;;;;5061442;28;20056;-96
2022/01/12 21:16:59;;;;;;;23.05;8.90;;;-11.20;95.30;;;;;;5061577;28;20469;-96
2022/01/12 21:19:26;;;;;;;17.30;6.70;;;-11.20;95.60;;;;;;5066545;28;20493;-96
2022/01/12 21:21:52;;;;;;;33.25;11.13;;;-11.20;95.60;;;;;;5061727;28;20111;-96
2022/01/12 21:24:21;;;;;;;20.55;8.32;;;-11.30;95.50;;;;;;5064168;28;20052;-96
2022/01/12 21:26:47;;;;;;;21.67;8.40;;;-11.30;95.00;;;;;;5060301;28;20041;-96
2022/01/12 21:29:13;;;;;;;24.00;8.73;;;-11.40;94.90;;;;;;5058937;28;20024;-96
2022/01/12 21:31:39;;;;;;;27.02;10.48;;;;;;;;;;5059200;28;20124;-96
2022/01/12 21:34:09;;;;;;;25.80;8.20;;;-11.40;95.70;;;;;;5058539;28;20543;-94
2022/01/12 21:36:36;;;;;;;18.30;8.05;;;-11.80;95.90;;;;;;5058635;28;20024;-94
2022/01/12 21:39:09;;;;;;;28.00;8.40;;;-11.40;95.50;;;;;;5058591;28;20390;-96
2022/01/12 21:41:43;;;;;;;21.48;7.63;;;-9.80;96.00;;;;;;5077008;28;20033;-96
2022/01/12 21:44:11;;;;;;;22.48;8.60;;;-11.50;95.60;;;;;;5058408;28;20115;-96
2022/01/12 21:46:37;;;;;;;27.77;9.88;;;-10.90;95.80;;;;;;5058846;28;20522;-96
2022/01/12 21:49:05;;;;;;;23.52;10.00;;;-11.50;95.90;;;;;;5058972;28;20025;-95
2022/01/12 21:51:33;;;;;;;26.25;9.75;;;-11.40;95.70;;;;;;5058284;28;20085;-96
2022/01/12 21:53:59;;;;;;;24.63;9.02;;;-11.30;95.60;;;;;;5058265;28;20025;-96
2022/01/12 21:56:26;;;;;;;23.52;7.72;;;-11.40;95.70;;;;;;5058744;28;20397;-96
2022/01/12 21:58:53;;;;;;;23.58;8.90;;;-11.50;95.60;;;;;;5059365;28;20051;-96
2022/01/12 22:01:23;;;;;;;17.98;7.35;;;-11.40;96.20;;;;;;5060961;28;20032;-96
2022/01/12 22:03:48;;;;;;;17.25;8.13;;;-11.40;95.90;;;;;;5059303;28;20473;-96
2022/01/12 22:06:14;;;;;;;16.35;7.68;;;-11.30;95.90;;;;;;5058142;28;20032;-96
2022/01/12 22:08:40;;;;;;;15.23;6.25;;;-8.80;96.50;;;;;;5058122;28;20021;-96
2022/01/12 22:11:08;;;;;;;16.17;6.32;;;-11.10;95.50;;;;;;5057943;28;20417;-96
2022/01/12 22:13:35;;;;;;;15.93;6.63;;;-11.20;95.20;;;;;;5058684;28;20032;-96
2022/01/12 22:16:01;;;;;;;19.52;6.82;;;-11.20;95.40;;;;;;5058138;28;20083;-96
2022/01/12 22:18:26;;;;;;;17.27;7.10;;;-11.30;94.80;;;;;;5058772;28;20025;-93
2022/01/12 22:20:55;;;;;;;16.98;7.18;;;-11.30;95.00;;;;;;5057875;28;20035;-96
2022/01/12 22:23:22;;;;;;;21.55;7.90;;;-11.30;95.20;;;;;;5057803;28;20165;-96
2022/01/12 22:25:49;;;;;;;18.10;7.30;;;-11.40;95.10;;;;;;5057599;28;20033;-96
2022/01/12 22:28:16;;;;;;;24.05;8.07;;;-11.40;95.30;;;;;;5057416;28;20048;-96
2022/01/12 22:30:42;;;;;;;19.88;7.47;;;-11.30;95.70;;;;;;5057512;28;20091;-96
2022/01/12 22:33:08;;;;;;;15.07;6.32;;;-11.30;95.70;;;;;;5057706;28;20036;-96
2022/01/12 22:35:34;;;;;;;17.20;6.35;;;;;;;;;;5057811;28;20029;-96
2022/01/12 22:38:00;;;;;;;14.27;7.05;;;;;;;;;;5057556;28;20119;-96
2022/01/12 22:40:27;;;;;;;16.25;7.18;;;-11.20;95.50;;;;;;5057672;28;20029;-96
2022/01/12 22:42:55;;;;;;;16.02;6.60;;;-11.10;95.60;;;;;;5057361;28;20124;-96
2022/01/12 22:45:21;;;;;;;15.00;6.40;;;-11.10;95.30;;;;;;5057973;28;20025;-96
2022/01/12 22:47:48;;;;;;;13.82;5.95;;;-11.00;95.60;;;;;;5057377;28;20021;-96
2022/01/12 22:50:14;;;;;;;10.10;5.07;;;-11.00;95.70;;;;;;5058121;28;20443;-96
2022/01/12 22:52:40;;;;;;;14.57;6.80;;;-10.30;95.70;;;;;;5056868;28;20039;-96
2022/01/12 22:55:06;;;;;;;14.70;6.90;;;-9.10;95.70;;;;;;5057284;28;20040;-96
2022/01/12 22:57:39;;;;;;;15.73;6.15;;;-11.10;95.10;;;;;;5057994;28;20025;-95
2022/01/12 23:00:06;;;;;;;13.00;6.22;;;-11.00;95.30;;;;;;5057140;28;20032;-96
2022/01/12 23:02:32;;;;;;;16.27;5.93;;;-11.00;95.00;;;;;;5057117;28;20043;-95
2022/01/12 23:04:57;;;;;;;14.07;6.53;;;-11.00;94.90;;;;;;5057336;28;20028;-96
2022/01/12 23:07:23;;;;;;;10.38;5.32;;;;;;;;;;5057274;28;20024;-96
2022/01/12 23:09:49;;;;;;;17.30;7.82;;;-11.50;94.30;;;;;;5057828;28;20474;-96
2022/01/12 23:12:15;;;;;;;17.45;6.68;;;-11.30;94.90;;;;;;5057019;28;20032;-96
2022/01/12 23:14:41;;;;;;;12.70;6.18;;;-11.50;94.70;;;;;;5056734;28;20029;-96
2022/01/12 23:17:07;;;;;;;22.33;8.48;;;-11.30;95.00;;;;;;5057019;28;20127;-96
2022/01/12 23:19:33;;;;;;;15.13;6.85;;;-11.30;95.30;;;;;;5056576;28;20064;-96
2022/01/12 23:21:59;;;;;;;16.85;6.80;;;-11.30;95.30;;;;;;5057463;28;20075;-95
2022/01/12 23:24:25;;;;;;;19.50;6.50;;;-11.30;95.50;;;;;;5057089;28;20021;-96
2022/01/12 23:26:52;;;;;;;23.45;8.05;;;-12.30;95.10;;;;;;5056496;28;20114;-95
2022/01/12 23:29:20;;;;;;;23.52;8.02;;;-11.30;95.40;;;;;;5056738;28;20036;-96
2022/01/12 23:31:46;;;;;;;38.42;10.90;;;-11.30;95.40;;;;;;5056602;28;20463;-95
2022/01/12 23:42:36;;;;;;;23.52;7.82;;;-11.80;95.50;;;;;;5074381;28;20118;-95
2022/01/12 23:58:29;;;;;;;18.73;6.88;;;-11.10;95.70;;;;;;5074391;28;20039;-95
